Latest Weather Observations for Giles*

IDD60801

Issued at 9:01 pm CST Monday 25 July 2016 (issued every 30 minutes, with the page automatically refreshed every 10 minutes)

About weather observations | Map of weather stations | Latest weather observations for NT | Other Formats
Station Details ID: 013017 Name: GILES METEOROLOGICAL OFFICE Lat: -25.03 Lon: 128.30 Height: 598.0 m
Data from the previous 72 hours. | See also: Recent months at Giles*

* Giles observations are collected in the South Australia time zone, which includes daylight saving in the summer period. Therefore, Rain since 9am value is with respect to South Australia local time.

Date/Time
CST
Temp
°C
App
Temp
°C
Dew
Point
°C
Rel
Hum
%
Delta-T
°C
Wind Press
QNH
hPa
Press
MSL
hPa
Rain since
9am
mm
Dir  Spd
km/h
Gust
km/h
Spd
kts
Gust
kts
25/08:30pm 12.8 8.7 -0.4 40 5.6 SE 11 13 6 7 1021.8 1021.1 0.0
25/08:00pm 13.4 8.9 -0.5 38 5.9 SE 13 13 7 7 1021.6 1020.9 0.0
25/07:30pm 15.2 11.3 -1.6 31 7.1 E 9 11 5 6 1021.2 1020.5 0.0
25/07:00pm 16.2 12.2 -2.0 28 7.7 ESE 9 11 5 6 1021.0 1020.2 0.0
25/06:30pm 16.4 12.5 -1.3 30 7.6 SE 9 11 5 6 1020.6 1019.9 0.0
25/06:00pm 18.6 14.8 -4.1 21 9.4 E 7 11 4 6 1020.4 1019.7 0.0
25/05:30pm 19.2 14.7 -6.5 17 10.2 SE 9 17 5 9 1020.2 1019.5 0.0
25/05:00pm 19.5 14.7 -5.8 17 10.2 ESE 11 15 6 8 1020.3 1019.6 0.0
25/04:30pm 19.3 14.9 -6.3 17 10.2 ESE 9 15 5 8 1020.4 1019.7 0.0
25/04:00pm 19.1 14.4 -5.3 18 9.9 ESE 11 17 6 9 1020.4 1019.7 0.0
25/03:30pm 19.0 14.5 -6.5 17 10.1 S 9 17 5 9 1020.6 1019.9 0.0
25/03:00pm 18.7 14.4 -4.8 20 9.6 SW 9 13 5 7 1021.2 1020.5 0.0
25/02:30pm 18.9 14.4 -3.5 21 9.4 SE 11 17 6 9 1021.3 1020.6 0.0
25/02:00pm 17.7 13.5 -3.9 22 8.9 E 9 19 5 10 1021.8 1021.1 0.0
25/01:30pm 17.7 13.9 -3.9 22 8.9 NE 7 13 4 7 1022.3 1021.6 0.0
25/01:00pm 16.6 12.0 -3.7 24 8.3 E 11 19 6 10 1023.0 1022.3 0.0
25/12:30pm 16.7 11.9 -2.7 26 8.1 E 13 22 7 12 1023.4 1022.7 0.0
25/12:00pm 15.4 9.2 -3.2 27 7.6 E 20 26 11 14 1024.0 1023.3 0.0
25/11:30am 14.8 8.9 -2.4 30 7.1 E 19 26 10 14 1024.6 1023.9 0.0
25/11:00am 13.8 7.7 -2.0 33 6.5 ESE 20 32 11 17 1024.9 1024.2 0.0
25/10:30am 12.5 6.3 -2.8 34 6.1 E 20 28 11 15 1025.0 1024.3 0.0
25/10:00am 11.7 5.2 -2.6 37 5.7 ESE 22 32 12 17 1024.8 1024.1 0.0
25/09:30am 10.3 3.8 -2.8 40 5.1 E 22 30 12 16 1024.8 1024.1 0.0
25/09:00am 8.6 2.6 -1.5 49 4.0 ESE 20 30 11 16 1024.5 1023.8 0.0
25/08:30am 6.4 1.1 -0.4 62 2.7 ESE 17 20 9 11 1024.6 1023.9 0.0
25/08:00am 5.4 0.5 -0.2 67 2.2 ESE 15 20 8 11 1023.9 1023.2 0.0
25/07:30am 5.3 -0.3 -0.3 67 2.2 ESE 19 22 10 12 1023.6 1022.9 0.0
25/07:00am 5.7 0.0 -0.4 65 2.4 E 19 22 10 12 1023.3 1022.6 0.0
25/06:30am 5.3 0.5 0.0 68 2.1 E 15 17 8 9 1023.1 1022.4 0.0
25/06:00am 5.8 1.3 0.0 66 2.3 ESE 13 17 7 9 1023.0 1022.3 0.0
25/05:30am 6.5 2.4 0.0 63 2.6 E 11 15 6 8 1023.0 1022.3 0.0
25/05:00am 6.2 2.2 0.5 67 2.3 E 11 13 6 7 1022.5 1021.8 0.0
25/04:30am 6.6 2.6 0.4 64 2.5 E 11 13 6 7 1022.4 1021.7 0.0
25/04:00am 7.0 2.7 0.7 64 2.6 ESE 13 17 7 9 1022.3 1021.6 0.0
25/03:30am 7.5 3.9 0.7 62 2.8 E 9 11 5 6 1022.7 1022.0 0.0
25/03:00am 8.0 4.4 0.5 59 3.1 E 9 11 5 6 1022.7 1022.0 0.0
25/02:30am 8.5 4.5 0.2 56 3.4 ESE 11 15 6 8 1022.4 1021.7 0.0
25/02:00am 9.1 5.0 0.1 53 3.7 ESE 11 15 6 8 1022.9 1022.2 0.0
25/01:30am 9.4 5.4 0.3 53 3.8 SE 11 15 6 8 1022.8 1022.1 0.0
25/01:00am 9.5 5.8 0.1 52 3.9 E 9 13 5 7 1023.3 1022.6 0.0
25/12:30am 9.6 5.9 -0.1 51 4.0 SE 9 13 5 7 1023.2 1022.5 0.0
25/12:00am 10.5 6.8 -0.1 48 4.4 E 9 13 5 7 1023.3 1022.6 0.0
 
Date/Time
CST
Temp
°C
App
Temp
°C
Dew
Point
°C
Rel
Hum
%
Delta-T
°C
Wind Press
QNH
hPa
Press
MSL
hPa
Rain since
9am
mm
Dir  Spd
km/h
Gust
km/h
Spd
kts
Gust
kts
24/11:30pm 10.6 6.9 -0.2 47 4.5 SE 9 15 5 8 1023.4 1022.7 0.0
24/11:00pm 10.7 7.0 0.2 48 4.4 SE 9 11 5 6 1023.7 1023.0 0.0
24/10:30pm 11.2 8.1 0.0 46 4.7 E 6 9 3 5 1023.7 1023.0 0.0
24/10:00pm 11.8 7.2 -1.0 41 5.3 SE 13 19 7 10 1023.6 1022.9 0.0
24/09:30pm 12.0 7.0 -1.4 39 5.5 SSE 15 17 8 9 1023.6 1022.9 0.0
24/09:00pm 12.4 7.3 -1.8 37 5.8 SSE 15 20 8 11 1023.4 1022.7 0.0
24/08:30pm 12.9 8.2 -2.0 35 6.1 SSE 13 19 7 10 1023.8 1023.1 0.0
24/08:00pm 13.4 8.3 -2.3 33 6.4 SSE 15 20 8 11 1023.2 1022.5 0.0
24/07:30pm 13.7 9.0 -2.1 33 6.5 SSE 13 15 7 8 1022.8 1022.1 0.0
24/07:00pm 14.2 9.4 -2.3 32 6.8 SSE 13 19 7 10 1022.4 1021.7 0.0
24/06:30pm 14.8 9.9 -3.2 28 7.3 SSE 13 17 7 9 1022.1 1021.4 0.0
24/06:00pm 15.6 9.8 -4.5 25 8.0 SSE 17 24 9 13 1021.9 1021.2 0.0
24/05:30pm 16.1 9.6 -5.7 22 8.5 SSE 20 28 11 15 1021.3 1020.6 0.0
24/05:00pm 16.6 10.1 -5.5 21 8.7 SSE 20 28 11 15 1021.4 1020.7 0.0
24/04:30pm 16.5 10.2 -5.7 21 8.7 SSE 19 26 10 14 1021.4 1020.7 0.0
24/04:00pm 17.4 11.1 -6.0 19 9.2 SSE 19 28 10 15 1021.6 1020.9 0.0
24/03:30pm 16.9 10.6 -6.2 20 9.0 SE 19 30 10 16 1021.4 1020.7 0.0
24/03:00pm 16.9 10.6 -5.7 21 8.9 SSE 19 30 10 16 1021.6 1020.9 0.0
24/02:30pm 17.5 11.2 -5.8 20 9.2 SE 19 30 10 16 1022.0 1021.3 0.0
24/02:00pm 16.7 10.3 -5.3 21 8.7 SE 20 32 11 17 1022.2 1021.5 0.0
24/01:30pm 15.7 8.6 -4.7 24 8.1 SSE 24 33 13 18 1022.7 1022.0 0.0
24/01:00pm 14.6 7.5 -4.4 26 7.5 SE 24 33 13 18 1023.4 1022.7 0.0
24/12:30pm 14.5 7.5 -3.8 28 7.3 SSE 24 33 13 18 1024.2 1023.6 0.0
24/12:00pm 14.0 6.7 -3.1 30 6.9 SSE 26 35 14 19 1024.3 1023.7 0.0
24/11:30am 13.0 5.7 -2.6 33 6.3 SSE 26 37 14 20 1024.5 1023.8 0.0
24/11:00am 12.6 5.4 -2.2 35 6.0 SSE 26 37 14 20 1024.5 1023.8 0.0
24/10:30am 12.1 4.5 -2.0 37 5.7 SSE 28 39 15 21 1024.2 1023.6 0.0
24/10:00am 11.4 3.9 -1.3 41 5.2 SSE 28 41 15 22 1024.3 1023.7 0.0
24/09:30am 11.0 3.9 -1.3 42 5.0 SE 26 35 14 19 1023.7 1023.0 0.0
24/09:00am 9.5 3.7 -0.2 51 4.0 SE 20 28 11 15 1023.2 1022.5 0.0
24/08:30am 8.8 3.7 0.6 56 3.4 SE 17 20 9 11 1022.9 1022.2 0.0
24/08:00am 8.5 3.7 0.5 57 3.3 SSE 15 20 8 11 1022.5 1021.8 0.0
24/07:30am 8.5 3.7 0.5 57 3.3 SSE 15 20 8 11 1022.2 1021.5 0.0
24/07:00am 8.8 3.1 0.4 55 3.5 SSE 20 24 11 13 1021.7 1021.0 0.0
24/06:30am 9.2 4.2 1.2 57 3.4 SSE 17 24 9 13 1021.4 1020.7 0.0
24/06:00am 9.5 5.0 1.9 59 3.3 SSE 15 22 8 12 1021.2 1020.5 0.0
24/05:30am 9.9 5.3 1.8 57 3.5 S 15 22 8 12 1021.1 1020.3 0.0
24/05:00am 10.5 4.7 2.1 56 3.7 S 22 32 12 17 1021.2 1020.5 0.0
24/04:30am 11.0 6.2 2.4 55 3.8 S 17 26 9 14 1020.7 1020.0 0.0
24/04:00am 11.5 6.2 1.7 51 4.3 S 19 26 10 14 1020.7 1020.0 0.0
24/03:30am 11.9 7.4 2.3 52 4.3 S 15 20 8 11 1020.7 1020.0 0.0
24/03:00am 12.2 7.7 2.1 50 4.5 S 15 19 8 10 1020.9 1020.1 0.0
24/02:30am 12.6 8.9 2.4 50 4.6 SSW 11 15 6 8 1021.2 1020.5 0.0
24/02:00am 12.7 8.6 2.2 49 4.7 S 13 17 7 9 1020.9 1020.1 0.0
24/01:30am 13.0 9.3 2.1 47 4.9 S 11 17 6 9 1020.6 1019.9 0.0
24/01:00am 13.2 9.8 2.1 47 5.0 SSW 9 13 5 7 1020.9 1020.1 0.0
24/12:30am 13.2 10.0 2.9 49 4.7 S 9 15 5 8 1020.6 1019.9 0.0
24/12:00am 13.5 9.4 2.5 47 5.0 S 13 20 7 11 1021.0 1020.2 0.0
 
Date/Time
CST
Temp
°C
App
Temp
°C
Dew
Point
°C
Rel
Hum
%
Delta-T
°C
Wind Press
QNH
hPa
Press
MSL
hPa
Rain since
9am
mm
Dir  Spd
km/h
Gust
km/h
Spd
kts
Gust
kts
23/11:30pm 13.6 9.0 3.5 50 4.7 S 17 22 9 12 1021.1 1020.3 0.0
23/11:00pm 13.7 9.9 3.9 51 4.6 SSW 13 19 7 10 1021.2 1020.5 0.0
23/10:30pm 14.0 10.1 3.2 48 5.0 SSW 13 20 7 11 1021.0 1020.2 0.0
23/10:00pm 14.0 9.4 3.5 49 4.9 SSW 17 24 9 13 1020.7 1020.0 0.0
23/09:30pm 15.3 11.8 1.3 38 6.3 SSW 9 13 5 7 1020.4 1019.7 0.0
23/09:00pm 15.4 12.3 1.4 38 6.3 SSW 7 9 4 5 1020.3 1019.6 0.0
23/08:30pm 15.6 12.0 0.5 36 6.7 SSW 9 11 5 6 1020.1 1019.4 0.0
23/08:00pm 15.7 13.0 0.0 34 6.9 SSW 4 9 2 5 1019.8 1019.1 0.0
23/07:30pm 16.3 12.1 -0.7 31 7.4 SSW 11 15 6 8 1019.4 1018.6 0.0
23/07:00pm 16.7 12.1 -0.7 30 7.6 SSW 13 17 7 9 1019.3 1018.5 0.0
23/06:30pm 17.2 12.1 -1.6 27 8.1 SSW 15 20 8 11 1019.2 1018.4 0.0
23/06:00pm 18.0 12.0 -1.6 26 8.5 SSW 20 26 11 14 1019.1 1018.3 0.0
23/05:30pm 19.2 13.5 -4.1 20 9.7 SW 17 24 9 13 1018.8 1018.1 0.0
23/05:00pm 19.9 13.6 -3.8 20 10.0 SW 20 26 11 14 1018.7 1018.0 0.0
23/04:30pm 20.8 16.6 -3.5 19 10.4 WNW 9 13 5 7 1018.3 1017.6 0.0
23/04:00pm 21.3 17.7 -1.9 21 10.3 WSW 7 15 4 8 1018.1 1017.3 0.0
23/03:30pm 20.9 17.4 -2.8 20 10.3 NW 6 15 3 8 1017.9 1017.1 0.0
23/03:00pm 19.9 15.9 -2.5 22 9.7 NNE 9 15 5 8 1018.1 1017.3 0.0
23/02:30pm 19.1 14.7 -2.1 23 9.2 NNE 11 19 6 10 1018.3 1017.6 0.0
23/02:00pm 18.3 14.2 0.1 29 8.2 NE 11 17 6 9 1018.5 1017.8 0.0
23/01:30pm 17.6 14.3 -0.2 30 7.9 ENE 7 13 4 7 1019.8 1019.1 0.0
23/01:00pm 16.8 13.0 -0.9 30 7.7 S 9 17 5 9 1021.0 1020.2 0.0
23/12:30pm 16.9 13.6 0.0 31 7.5 ENE 7 13 4 7 1021.2 1020.5 0.0
23/12:00pm 15.7 11.2 0.0 34 6.9 E 13 17 7 9 1021.4 1020.7 0.0
23/11:30am 15.4 11.0 0.1 35 6.7 ESE 13 19 7 10 1021.8 1021.1 0.0
23/11:00am 14.1 8.8 -0.7 36 6.3 ESE 17 24 9 13 1021.9 1021.2 0.0
23/10:30am 13.4 8.1 -0.5 38 5.9 SE 17 24 9 13 1022.1 1021.4 0.0
23/10:00am 12.8 7.5 -0.4 40 5.6 ESE 17 20 9 11 1022.0 1021.3 0.0
23/09:30am 12.0 6.1 -0.7 41 5.3 SE 20 26 11 14 1021.6 1020.9 0.0
23/09:00am 11.6 6.0 0.0 45 4.9 ESE 19 24 10 13 1021.4 1020.7 0.6
23/08:30am 11.3 6.1 -0.1 45 4.8 SE 17 20 9 11 1021.5 1020.8 0.6
23/08:00am 11.2 6.0 0.0 46 4.7 SSE 17 20 9 11 1021.3 1020.6 0.6
23/07:30am 11.1 6.7 0.5 48 4.5 SE 13 17 7 9 1021.3 1020.6 0.6
23/07:00am 10.6 6.3 1.3 52 4.0 SE 13 15 7 8 1020.9 1020.1 0.6
23/06:30am 10.3 6.0 0.9 52 4.0 SE 13 17 7 9 1020.4 1019.7 0.6
23/06:00am 10.6 6.3 1.3 52 4.0 SE 13 17 7 9 1020.3 1019.6 0.6
23/05:30am 11.2 6.6 1.3 50 4.3 SE 15 20 8 11 1020.1 1019.4 0.6
23/05:00am 11.3 6.7 1.4 50 4.3 SSE 15 19 8 10 1020.3 1019.6 0.6
23/04:30am 11.8 7.2 1.5 49 4.5 SSE 15 20 8 11 1020.2 1019.5 0.6
23/04:00am 12.2 6.8 1.2 47 4.8 SSE 19 24 10 13 1019.7 1018.9 0.6
23/03:30am 12.4 7.4 1.2 46 4.9 SSE 17 20 9 11 1019.8 1019.1 0.6
23/03:00am 12.5 8.2 1.0 45 5.0 SSE 13 19 7 10 1020.1 1019.4 0.6
23/02:30am 12.6 8.3 0.9 44 5.1 SSE 13 17 7 9 1020.2 1019.5 0.6
23/02:00am 12.8 9.0 1.5 46 5.0 SSE 11 13 6 7 1020.5 1019.8 0.6
23/01:30am 13.1 8.8 1.0 43 5.3 SSE 13 15 7 8 1020.1 1019.4 0.6
23/01:00am 13.5 9.2 0.7 41 5.6 SE 13 19 7 10 1020.2 1019.5 0.6
23/12:30am 13.6 9.3 0.8 41 5.6 SSE 13 19 7 10 1020.6 1019.9 0.6
23/12:00am 13.7 8.9 0.3 40 5.8 SSE 15 19 8 10 1020.5 1019.8 0.6
 
Date/Time
CST
Temp
°C
App
Temp
°C
Dew
Point
°C
Rel
Hum
%
Delta-T
°C
Wind Press
QNH
hPa
Press
MSL
hPa
Rain since
9am
mm
Dir  Spd
km/h
Gust
km/h
Spd
kts
Gust
kts
22/11:30pm 14.1 9.4 0.7 40 5.9 S 15 19 8 10 1021.0 1020.2 0.6
22/11:00pm 14.4 9.5 1.7 42 5.7 S 17 20 9 11 1020.6 1019.9 0.6
22/10:30pm 14.6 10.7 3.2 46 5.3 S 13 15 7 8 1020.5 1019.8 0.6
22/10:00pm 14.7 11.3 3.9 48 5.1 S 11 17 6 9 1020.3 1019.6 0.6
22/09:30pm 15.1 11.2 3.4 45 5.5 S 13 19 7 10 1020.5 1019.8 0.6

Other Formats:

Comma delimited format used in spreadsheet applications
http://www.bom.gov.au/fwo/IDD60801/IDD60801.94461.axf

JavaScript Object Notation format (JSON) in row-major order
http://www.bom.gov.au/fwo/IDD60801/IDD60801.94461.json